Pride Of Bruges — PGJW — position and weather

sailwx.info

Track history (hours):
 
Tides and Currents Weather Stations Pressure Air Temp Water Temp Dewpoint Dewpoint Depression Visibility Wind Speed Wind Dir Waves Ship Positions

Pride Of Bruges

Operator: P&O Ferries

Last reported at 2018-May-28 01:00 UTC. Time now 2018-May-28 01:08 UTC.
Position N 52°34' E 002°04'.

Length 180 m; draft 5.5 m.

Type: Ship. MMSI: 244387000.

Date/timePositionNaut miles runAvg speedWind from/ knotsBaromVisibWave heightAir tempDewpointWater temp
2018-May-28 01:00N 52°34' E 002°04'815.6
2018-May-28 00:30N 52°40' E 001°57'714.9
2018-May-28 00:00N 52°46' E 001°49'815.4
2018-May-27 23:31N 52°52' E 001°41'714.5
2018-May-27 23:01N 52°57' E 001°32'714.8
2018-May-27 22:31N 53°02' E 001°24'815.5
2018-May-27 22:01N 53°08' E 001°16'815.5
2018-May-27 21:30N 53°14' E 001°08'1015.3
2018-May-27 20:50N 53°21' E 000°55'815.7
2018-May-27 20:20N 53°24' E 000°43'515.7
2018-May-27 20:00N 53°26' E 000°35'915.5
2018-May-27 19:25N 53°29' E 000°21'915.6
2018-May-27 18:50N 53°33' E 000°07'818.0
2018-May-27 18:23N 53°37' W 000°05'616.7
2018-May-27 18:00N 53°41' W 000°13'4 7.6
2018-May-27 17:30N 53°44' W 000°16'0 0.2
2018-May-27 17:00N 53°45' W 000°16'0 0.0
2018-May-27 16:30N 53°45' W 000°16'0 0.0
2018-May-27 16:00N 53°45' W 000°16'0 0.0
2018-May-27 15:30N 53°45' W 000°16'0 0.0
2018-May-27 14:59N 53°45' W 000°16'0 0.0
2018-May-27 14:29N 53°45' W 000°16'0 0.0
2018-May-27 13:59N 53°45' W 000°16'0 0.0
2018-May-27 13:29N 53°45' W 000°16'0 0.0
2018-May-27 12:58N 53°45' W 000°16'0 0.0
2018-May-27 12:28N 53°45' W 000°16'0 0.0
2018-May-27 11:58N 53°45' W 000°16'0 0.0
2018-May-27 11:28N 53°45' W 000°16'0 0.0
2018-May-27 10:58N 53°45' W 000°16'0 0.0
2018-May-27 10:30N 53°45' W 000°16'0 0.0
2018-May-27 10:00N 53°45' W 000°16'0 0.0
2018-May-27 09:30N 53°45' W 000°16'0 0.0
2018-May-27 09:00N 53°45' W 000°16'0 0.0
2018-May-27 08:30N 53°45' W 000°16'0 0.0
2018-May-27 07:59N 53°45' W 000°16'0 0.2
2018-May-27 07:29N 53°44' W 000°16'0 0.3
2018-May-27 06:59N 53°44' W 000°17'4 7.8
2018-May-27 06:30N 53°41' W 000°13'612.1
2018-May-27 06:00N 53°37' W 000°06'713.9
2018-May-27 05:30N 53°34' E 000°05'713.8
2018-May-27 04:58N 53°32' E 000°17'1314.6
2018-May-27 04:05N 53°26' E 000°36'214.6
2018-May-27 03:58N 53°26' E 000°39'714.4
2018-May-27 03:27N 53°23' E 000°50'613.9
2018-May-27 03:01N 53°20' E 000°59'713.5
2018-May-27 02:30N 53°15' E 001°07'714.0
2018-May-27 02:00N 53°10' E 001°15'714.8
2018-May-27 01:30N 53°05' E 001°24'815.4
2018-May-27 01:00N 52°59' E 001°33'816.1
2018-May-27 00:30N 52°53' E 001°42'816.2
2018-May-27 00:00N 52°46' E 001°49'816.5
2018-May-26 23:30N 52°40' E 001°57'916.0
2018-May-26 22:57N 52°32' E 002°04'815.0
2018-May-26 22:25N 52°25' E 002°10'614.1
2018-May-26 22:00N 52°19' E 002°14'713.3
2018-May-26 21:31N 52°13' E 002°18'712.9
2018-May-26 20:58N 52°07' E 002°23'2212.5
2018-May-26 19:12N 51°47' E 002°37'312.5
2018-May-26 18:59N 51°44' E 002°39'1012.8
2018-May-26 18:14N 51°36' E 002°47'313.3
2018-May-26 17:59N 51°33' E 002°50'713.3
2018-May-26 17:28N 51°28' E 002°57'713.7
2018-May-26 16:59N 51°24' E 003°06'510.7
2018-May-26 16:30N 51°21' E 003°12'0 0.6
2018-May-26 15:59N 51°20' E 003°11'0 0.0
2018-May-26 15:23N 51°20' E 003°11'0 0.0
2018-May-26 14:59N 51°20' E 003°11'0 0.0
2018-May-26 14:25N 51°20' E 003°11'0 0.0
2018-May-26 13:52N 51°20' E 003°11'0 0.0
2018-May-26 13:28N 51°20' E 003°11'0 0.0
2018-May-26 12:55N 51°20' E 003°11'0 0.0
2018-May-26 12:28N 51°20' E 003°11'0 0.0
2018-May-26 12:00N 51°20' E 003°11'0 0.0
2018-May-26 11:27N 51°20' E 003°11'0 0.0
2018-May-26 10:54N 51°20' E 003°11'0 0.0
2018-May-26 10:21N 51°20' E 003°11'0 0.0
2018-May-26 09:54N 51°20' E 003°11'0 0.0
2018-May-26 08:11N 51°20' E 003°11'0 0.0
2018-May-26 07:47N 51°20' E 003°11'0 0.0
2018-May-26 07:13N 51°20' E 003°11'1 2.4
2018-May-26 06:49N 51°21' E 003°12'515.2
2018-May-26 06:30N 51°24' E 003°06'1615.7
2018-May-26 05:30N 51°33' E 002°45'2015.6
2018-May-26 04:14N 51°51' E 002°34'416.1
2018-May-26 03:59N 51°55' E 002°31'917.1
2018-May-26 03:30N 52°03' E 002°25'2917.3
2018-May-26 01:49N 52°29' E 002°07'616.8
2018-May-26 01:30N 52°34' E 002°03'816.3
2018-May-26 01:00N 52°41' E 001°57'816.0
2018-May-26 00:31N 52°47' E 001°48'816.0
2018-May-26 00:01N 52°52' E 001°38'815.6
2018-May-25 23:31N 52°59' E 001°31'815.9
2018-May-25 23:01N 53°05' E 001°22'816.0
2018-May-25 22:30N 53°11' E 001°14'816.1
2018-May-25 22:00N 53°17' E 001°05'815.9
2018-May-25 21:30N 53°22' E 000°54'816.1
2018-May-25 21:00N 53°25' E 000°42'2315.9
2018-May-25 19:32N 53°34' E 000°05'119.0
2018-May-25 19:28N 53°35' E 000°04'816.7
2018-May-25 18:58N 53°38' W 000°10'613.9
2018-May-25 18:30N 53°43' W 000°15'1 2.5
2018-May-25 18:00N 53°44' W 000°16'0 0.1
2018-May-25 17:28N 53°45' W 000°16'0 0.0
2018-May-25 17:00N 53°45' W 000°16'0 0.0
2018-May-25 16:30N 53°45' W 000°16'0 0.0
2018-May-25 16:00N 53°45' W 000°16'0 0.0
2018-May-25 15:30N 53°45' W 000°16'0 0.0
2018-May-25 14:59N 53°45' W 000°16'0 0.0
2018-May-25 14:29N 53°45' W 000°16'0 0.0
2018-May-25 13:59N 53°45' W 000°16'0 0.0
2018-May-25 13:29N 53°45' W 000°16'0 0.0
2018-May-25 12:59N 53°45' W 000°16'0 0.0
2018-May-25 12:28N 53°45' W 000°16'0 0.0
2018-May-25 11:58N 53°45' W 000°16'0 0.0
2018-May-25 11:28N 53°45' W 000°16'0 0.0
2018-May-25 10:58N 53°45' W 000°16'0 0.0
2018-May-25 10:25N 53°45' W 000°16'0 0.0
2018-May-25 10:00N 53°45' W 000°16'0 0.0
2018-May-25 09:30N 53°45' W 000°16'0 0.0
2018-May-25 09:00N 53°45' W 000°16'0 0.0
2018-May-25 08:30N 53°45' W 000°16'0 0.0
2018-May-25 07:59N 53°45' W 000°16'0 0.1
2018-May-25 07:30N 53°45' W 000°16'0 0.3
2018-May-25 07:00N 53°44' W 000°16'0 1.0
2018-May-25 06:30N 53°44' W 000°16'611.5
2018-May-25 06:00N 53°39' W 000°12'611.6
2018-May-25 05:29N 53°36' W 000°03'913.2
2018-May-25 04:49N 53°33' E 000°11'3215.0
2018-May-25 02:41N 53°20' E 000°60'314.5
2018-May-25 02:30N 53°18' E 001°03'714.0
2018-May-25 02:00N 53°13' E 001°11'714.0
2018-May-25 01:30N 53°07' E 001°19'714.1
2018-May-25 01:00N 53°02' E 001°27'714.6
2018-May-25 00:30N 52°57' E 001°36'815.7
2018-May-25 00:00N 52°51' E 001°44'816.8
2018-May-24 23:30N 52°44' E 001°52'918.1
2018-May-24 23:00N 52°37' E 002°00'4517.1
2018-May-24 20:22N 51°56' E 002°31'2216.1
2018-May-24 18:59N 51°36' E 002°47'816.1
2018-May-24 18:29N 51°30' E 002°55'815.2
2018-May-24 17:58N 51°24' E 003°05'612.7
2018-May-24 17:30N 51°21' E 003°12'0 0.9
2018-May-24 17:00N 51°20' E 003°11'0 0.2
2018-May-24 16:26N 51°20' E 003°11'0 0.0
2018-May-24 15:50N 51°20' E 003°11'0 0.0
2018-May-24 15:26N 51°20' E 003°11'0 0.0
2018-May-24 14:56N 51°20' E 003°11'0 0.0
2018-May-24 14:25N 51°20' E 003°11'0 0.0
2018-May-24 13:55N 51°20' E 003°11'0 0.0
2018-May-24 08:55N 51°20' E 003°11'0 0.0
2018-May-24 07:27N 51°20' E 003°11'0 0.0
2018-May-24 07:00N 51°20' E 003°11'1 1.9
2018-May-24 06:29N 51°21' E 003°12'715.0
2018-May-24 06:00N 51°25' E 003°02'815.4
2018-May-24 05:28N 51°29' E 002°51'715.2
2018-May-24 05:00N 51°34' E 002°43'815.4
2018-May-24 04:30N 51°42' E 002°39'815.9
2018-May-24 04:01N 51°49' E 002°35'816.2
2018-May-24 03:30N 51°57' E 002°30'816.8
2018-May-24 03:00N 52°04' E 002°24'917.7
2018-May-24 02:30N 52°12' E 002°18'918.1
2018-May-24 02:01N 52°21' E 002°12'917.8
2018-May-24 01:30N 52°29' E 002°07'917.7
2018-May-24 01:00N 52°37' E 002°00'817.3
2018-May-24 00:31N 52°44' E 001°52'917.7
2018-May-24 00:01N 52°50' E 001°42'816.7
2018-May-23 23:30N 52°57' E 001°33'816.4
2018-May-23 23:01N 53°03' E 001°24'816.4
2018-May-23 22:31N 53°09' E 001°15'816.5
2018-May-23 22:00N 53°15' E 001°06'815.0
2018-May-23 21:28N 53°21' E 000°57'714.8
2018-May-23 21:00N 53°24' E 000°46'815.3
2018-May-23 20:30N 53°28' E 000°36'1115.1
2018-May-23 19:49N 53°32' E 000°19'414.8
2018-May-23 19:30N 53°33' E 000°12'815.6
2018-May-23 19:01N 53°35' W 000°00'714.2
2018-May-23 18:30N 53°39' W 000°11'713.3
2018-May-23 18:01N 53°44' W 000°17'0 0.5
2018-May-23 17:30N 53°44' W 000°16'0 0.2
2018-May-23 16:58N 53°45' W 000°16'0 0.0
2018-May-23 16:28N 53°45' W 000°16'0 0.0
2018-May-23 15:58N 53°45' W 000°16'0 0.0
2018-May-23 15:29N 53°45' W 000°16'0 0.0
2018-May-23 14:58N 53°45' W 000°16'0 0.0
2018-May-23 14:28N 53°45' W 000°16'0 0.0
2018-May-23 13:58N 53°45' W 000°16'0 0.0
2018-May-23 13:28N 53°45' W 000°16'0 0.0
2018-May-23 12:58N 53°45' W 000°16'0 0.0
2018-May-23 12:30N 53°45' W 000°16'0 0.0
2018-May-23 12:00N 53°45' W 000°16'0 0.0
2018-May-23 11:29N 53°45' W 000°16'0 0.0
2018-May-23 10:59N 53°45' W 000°16'0 0.0
2018-May-23 10:29N 53°45' W 000°16'0 0.0
2018-May-23 09:59N 53°45' W 000°16'0 0.0
2018-May-23 09:28N 53°45' W 000°16'0 0.0
2018-May-23 08:59N 53°45' W 000°16'0 0.0
2018-May-23 08:29N 53°45' W 000°16'0 0.0
2018-May-23 07:59N 53°45' W 000°16'0 0.4
2018-May-23 07:29N 53°45' W 000°16'0 0.4
2018-May-23 07:00N 53°44' W 000°16'0 1.0
2018-May-23 06:30N 53°44' W 000°16'612.5
2018-May-23 06:00N 53°39' W 000°11'611.0
2018-May-23 05:30N 53°36' W 000°03'713.9
2018-May-23 05:00N 53°34' E 000°08'3314.8
2018-May-23 02:45N 53°20' E 000°59'314.4
2018-May-23 02:30N 53°17' E 001°03'714.1
2018-May-23 02:00N 53°12' E 001°11'713.9
2018-May-23 01:30N 53°07' E 001°19'713.7
2018-May-23 01:00N 53°02' E 001°27'713.5
2018-May-23 00:31N 52°58' E 001°35'713.6
2018-May-23 00:00N 52°52' E 001°42'714.3
2018-May-22 23:30N 52°46' E 001°49'815.7
2018-May-22 23:00N 52°40' E 001°57'816.5
2018-May-22 22:30N 52°34' E 002°06'917.0
2018-May-22 21:58N 52°25' E 002°12'817.1
2018-May-22 21:29N 52°18' E 002°17'817.1
2018-May-22 21:00N 52°10' E 002°22'817.0
2018-May-22 20:30N 52°02' E 002°27'816.7
2018-May-22 20:00N 51°55' E 002°32'816.5
2018-May-22 19:30N 51°47' E 002°37'816.4
2018-May-22 19:00N 51°39' E 002°43'816.3
2018-May-22 18:30N 51°33' E 002°51'816.2
2018-May-22 18:00N 51°27' E 002°59'714.4
2018-May-22 17:30N 51°23' E 003°09'3 6.2
2018-May-22 16:58N 51°20' E 003°11'0 0.0
2018-May-22 16:09N 51°20' E 003°11'0 0.0
2018-May-22 16:00N 51°20' E 003°11'0 0.0
2018-May-22 15:21N 51°20' E 003°11'0 0.0
2018-May-22 14:51N 51°20' E 003°11'0 0.0
2018-May-22 14:30N 51°20' E 003°11'0 0.0
2018-May-22 13:59N 51°20' E 003°11'0 0.0
2018-May-22 13:29N 51°20' E 003°11'0 0.0
2018-May-22 12:59N 51°20' E 003°11'0 0.0
2018-May-22 12:29N 51°20' E 003°11'0 0.0
2018-May-22 11:59N 51°20' E 003°11'0 0.0
2018-May-22 11:28N 51°20' E 003°11'0 0.0
2018-May-22 10:58N 51°20' E 003°11'0 0.0
2018-May-22 10:28N 51°20' E 003°11'0 0.0
2018-May-22 09:58N 51°20' E 003°11'0 0.0
2018-May-22 09:12N 51°20' E 003°11'0 0.0
2018-May-22 09:00N 51°20' E 003°11'0 0.0
2018-May-22 08:24N 51°20' E 003°11'0 0.0
2018-May-22 08:00N 51°20' E 003°11'0 0.0
2018-May-22 07:24N 51°20' E 003°11'0 0.0
2018-May-22 06:56N 51°20' E 003°11'1 1.5
2018-May-22 06:28N 51°21' E 003°12'714.0
2018-May-22 06:00N 51°25' E 003°04'815.2
2018-May-22 05:30N 51°28' E 002°53'914.5
2018-May-22 04:55N 51°34' E 002°43'614.2
2018-May-22 04:30N 51°40' E 002°39'714.7
2018-May-22 04:00N 51°47' E 002°37'815.5
2018-May-22 03:28N 51°55' E 002°33'816.4
2018-May-22 03:00N 52°02' E 002°27'2417.2
2018-May-22 01:35N 52°24' E 002°11'518.6
2018-May-22 01:20N 52°28' E 002°08'618.8
2018-May-22 01:00N 52°33' E 002°03'919.0
2018-May-22 00:31N 52°42' E 001°55'1019.0
2018-May-22 00:01N 52°48' E 001°44'1019.1
2018-May-21 23:31N 52°54' E 001°32'918.9
2018-May-21 23:00N 52°59' E 001°18'2717.6
2018-May-21 21:27N 53°16' E 000°42'817.4
2018-May-21 21:00N 53°22' E 000°33'817.2
2018-May-21 20:30N 53°28' E 000°24'816.3
2018-May-21 20:00N 53°33' E 000°13'713.8
2018-May-21 19:30N 53°35' E 000°02'713.5
2018-May-21 19:00N 53°38' W 000°09'510.6
2018-May-21 18:30N 53°42' W 000°14'3 5.6
2018-May-21 18:00N 53°44' W 000°16'0 0.3
2018-May-21 17:30N 53°45' W 000°16'0 0.3
2018-May-21 16:59N 53°45' W 000°16'0 0.0
2018-May-21 16:29N 53°45' W 000°16'0 0.0
2018-May-21 15:58N 53°45' W 000°16'0 0.0
2018-May-21 15:28N 53°45' W 000°16'0 0.0
2018-May-21 14:58N 53°45' W 000°16'0 0.0
2018-May-21 14:28N 53°45' W 000°16'0 0.0
2018-May-21 14:01N 53°45' W 000°16'0 0.0
2018-May-21 13:30N 53°45' W 000°16'0 0.0
2018-May-21 13:00N 53°45' W 000°16'0 0.0
2018-May-21 12:30N 53°45' W 000°16'0 0.0
2018-May-21 12:00N 53°45' W 000°16'0 0.0
2018-May-21 11:29N 53°45' W 000°16'0 0.0
2018-May-21 10:59N 53°45' W 000°16'0 0.0
2018-May-21 10:29N 53°45' W 000°16'0 0.0
2018-May-21 09:59N 53°45' W 000°16'0 0.0
2018-May-21 09:29N 53°45' W 000°16'0 0.0
2018-May-21 08:58N 53°45' W 000°16'0 0.0
2018-May-21 08:28N 53°45' W 000°16'0 0.0
2018-May-21 07:58N 53°45' W 000°16'0 0.0
2018-May-21 07:30N 53°45' W 000°16'0 0.2
2018-May-21 07:00N 53°44' W 000°16'1 1.3
2018-May-21 06:30N 53°44' W 000°16'713.8
2018-May-21 06:00N 53°38' W 000°10'714.8
2018-May-21 05:31N 53°35' E 000°02'815.6
2018-May-21 05:00N 53°33' E 000°14'714.4
2018-May-21 04:30N 53°32' E 000°26'815.2
2018-May-21 03:59N 53°28' E 000°37'714.6
2018-May-21 03:30N 53°24' E 000°48'714.6
2018-May-21 03:00N 53°21' E 000°59'713.9
2018-May-21 02:31N 53°17' E 001°07'713.4
2018-May-21 02:00N 53°11' E 001°13'714.1
2018-May-21 01:31N 53°06' E 001°21'714.3
2018-May-21 01:00N 53°00' E 001°29'714.2
2018-May-21 00:31N 52°55' E 001°37'713.7
2018-May-21 00:00N 52°51' E 001°46'713.5
2018-May-20 23:30N 52°46' E 001°54'713.5
2018-May-20 23:00N 52°40' E 001°59'713.5
2018-May-20 22:30N 52°34' E 002°02'714.3
2018-May-20 22:00N 52°28' E 002°07'715.0
2018-May-20 21:30N 52°21' E 002°13'815.6
2018-May-20 21:00N 52°14' E 002°18'816.2
2018-May-20 20:30N 52°06' E 002°23'816.6
2018-May-20 20:00N 51°59' E 002°29'816.5
2018-May-20 19:30N 51°51' E 002°34'816.2
2018-May-20 19:00N 51°44' E 002°39'816.5
2018-May-20 18:30N 51°37' E 002°46'816.0
2018-May-20 18:00N 51°30' E 002°54'714.9
2018-May-20 17:31N 51°25' E 003°02'611.8
2018-May-20 17:01N 51°22' E 003°11'2 3.7
2018-May-20 16:26N 51°20' E 003°11'0 0.0
2018-May-20 15:59N 51°20' E 003°11'0 0.0
2018-May-20 15:17N 51°20' E 003°11'0 0.0
2018-May-20 14:13N 51°20' E 003°11'0 0.0
2018-May-20 13:46N 51°20' E 003°11'0 0.0
2018-May-20 11:42N 51°20' E 003°11'0 0.0
2018-May-20 10:06N 51°20' E 003°11'0 0.0
2018-May-20 09:51N 51°20' E 003°11'0 0.0
2018-May-20 09:17N 51°20' E 003°11'0 0.0
2018-May-20 08:53N 51°20' E 003°11'0 0.0
2018-May-20 08:26N 51°20' E 003°11'0 0.0
2018-May-20 07:59N 51°20' E 003°11'0 0.0
2018-May-20 07:29N 51°20' E 003°11'0 0.7
2018-May-20 07:00N 51°21' E 003°12'611.6
2018-May-20 06:29N 51°24' E 003°04'715.0
2018-May-20 05:59N 51°28' E 002°54'915.0
2018-May-20 05:21N 51°34' E 002°43'514.8
2018-May-20 05:00N 51°39' E 002°39'714.7
2018-May-20 04:30N 51°46' E 002°35'714.4
2018-May-20 04:00N 51°53' E 002°33'714.2
2018-May-20 03:30N 51°59' E 002°28'714.7
2018-May-20 03:01N 52°06' E 002°23'815.5
2018-May-20 02:28N 52°14' E 002°18'716.2
2018-May-20 02:00N 52°21' E 002°14'816.6
2018-May-20 01:31N 52°29' E 002°09'816.6
2018-May-20 01:00N 52°36' E 002°04'816.6
2018-May-20 00:30N 52°43' E 001°57'817.0
2018-May-20 00:00N 52°49' E 001°46'917.7
2018-May-19 23:30N 52°54' E 001°34'917.8
2018-May-19 23:00N 52°59' E 001°22'917.4
2018-May-19 22:31N 53°02' E 001°08'1217.2
2018-May-19 21:49N 53°09' E 000°52'516.9
2018-May-19 21:30N 53°13' E 000°46'816.2
2018-May-19 21:00N 53°19' E 000°37'816.1
2018-May-19 20:30N 53°25' E 000°29'816.1
2018-May-19 20:00N 53°30' E 000°19'714.4
2018-May-19 19:30N 53°33' E 000°08'713.1
2018-May-19 19:00N 53°36' W 000°03'611.8
2018-May-19 18:29N 53°39' W 000°11'510.9
2018-May-19 17:59N 53°44' W 000°16'1 1.6
2018-May-19 17:30N 53°44' W 000°16'0 0.3
2018-May-19 17:00N 53°45' W 000°16'0 0.0
2018-May-19 16:30N 53°45' W 000°16'0 0.0
2018-May-19 16:00N 53°45' W 000°16'0 0.0
2018-May-19 15:30N 53°45' W 000°16'0 0.0
2018-May-19 15:00N 53°45' W 000°16'0 0.0
2018-May-19 14:29N 53°45' W 000°16'0 0.0
2018-May-19 13:59N 53°45' W 000°16'0 0.0
2018-May-19 13:29N 53°45' W 000°16'0 0.0
2018-May-19 12:59N 53°45' W 000°16'0 0.0
2018-May-19 12:29N 53°45' W 000°16'0 0.0
2018-May-19 11:58N 53°45' W 000°16'0 0.0
2018-May-19 11:28N 53°45' W 000°16'0 0.0
2018-May-19 10:58N 53°45' W 000°16'0 0.0
2018-May-19 10:28N 53°45' W 000°16'0 0.0
2018-May-19 10:01N 53°45' W 000°16'0 0.0
2018-May-19 09:30N 53°45' W 000°16'0 0.0
2018-May-19 09:00N 53°45' W 000°16'0 0.0
2018-May-19 08:30N 53°45' W 000°16'0 0.0
2018-May-19 08:00N 53°45' W 000°16'0 0.3
2018-May-19 07:30N 53°45' W 000°16'0 0.6
2018-May-19 07:00N 53°44' W 000°16'4 8.4
2018-May-19 06:30N 53°41' W 000°13'815.5
2018-May-19 06:00N 53°36' W 000°03'815.2
2018-May-19 05:30N 53°33' E 000°09'1113.6
2018-May-19 04:43N 53°31' E 000°27'312.1
2018-May-19 04:28N 53°30' E 000°31'1413.1
2018-May-19 03:22N 53°23' E 000°52'514.9
2018-May-19 03:00N 53°20' E 000°60'815.2
2018-May-19 02:30N 53°14' E 001°08'815.3
2018-May-19 02:00N 53°08' E 001°16'815.0
2018-May-19 01:30N 53°02' E 001°24'714.9
2018-May-19 01:00N 52°57' E 001°32'815.2
2018-May-19 00:30N 52°51' E 001°41'714.5
2018-May-19 00:00N 52°46' E 001°49'713.8
2018-May-18 23:30N 52°41' E 001°56'713.6
2018-May-18 23:00N 52°35' E 002°02'1513.8
2018-May-18 21:56N 52°21' E 002°12'1313.8
2018-May-18 21:00N 52°10' E 002°21'814.2
2018-May-18 20:27N 52°03' E 002°26'714.7
2018-May-18 20:00N 51°56' E 002°30'915.1
2018-May-18 19:23N 51°48' E 002°37'615.4
2018-May-18 19:00N 51°43' E 002°40'914.9
2018-May-18 18:24N 51°35' E 002°48'614.8
2018-May-18 18:00N 51°30' E 002°54'713.9
2018-May-18 17:30N 51°25' E 003°01'714.7
2018-May-18 17:00N 51°22' E 003°12'1 2.4
2018-May-18 16:26N 51°20' E 003°11'0 0.0
2018-May-18 15:59N 51°20' E 003°11'0 0.0
2018-May-18 15:29N 51°20' E 003°11'0 0.0
2018-May-18 14:59N 51°20' E 003°11'0 0.0
2018-May-18 14:29N 51°20' E 003°11'0 0.0
2018-May-18 13:58N 51°20' E 003°11'0 0.0
2018-May-18 13:28N 51°20' E 003°11'0 0.0
2018-May-18 12:55N 51°20' E 003°11'0 0.0
2018-May-18 12:25N 51°20' E 003°11'0 0.0
2018-May-18 11:58N 51°20' E 003°11'0 0.0
2018-May-18 11:30N 51°20' E 003°11'0 0.0
2018-May-18 11:00N 51°20' E 003°11'0 0.0
2018-May-18 10:30N 51°20' E 003°11'0 0.0
2018-May-18 10:00N 51°20' E 003°11'0 0.0
2018-May-18 09:29N 51°20' E 003°11'0 0.0
2018-May-18 08:59N 51°20' E 003°11'0 0.0
2018-May-18 08:29N 51°20' E 003°11'0 0.0
2018-May-18 07:53N 51°20' E 003°11'0 0.0
2018-May-18 07:26N 51°20' E 003°11'0 0.0
2018-May-18 06:59N 51°20' E 003°11'1 2.3
2018-May-18 06:30N 51°21' E 003°12'714.1
2018-May-18 06:01N 51°25' E 003°02'814.2
2018-May-18 05:28N 51°29' E 002°51'614.4
2018-May-18 05:00N 51°34' E 002°44'814.3
2018-May-18 04:28N 51°41' E 002°39'714.7
2018-May-18 04:00N 51°47' E 002°37'714.5
2018-May-18 03:30N 51°54' E 002°33'714.5
2018-May-18 03:00N 52°01' E 002°28'815.1
2018-May-18 02:30N 52°07' E 002°22'915.6
2018-May-18 01:56N 52°15' E 002°16'816.0
2018-May-18 01:27N 52°23' E 002°12'  
Track history (hours):
 
Tides and Currents Weather Stations Pressure Air Temp Water Temp Dewpoint Dewpoint Depression Visibility Wind Speed Wind Dir Waves Ship Positions

Pride Of Bruges

Operator: P&O Ferries

Last reported at 2018-May-28 01:00 UTC. Time now 2018-May-28 01:08 UTC.
Position N 52°34' E 002°04'.

Length 180 m; draft 5.5 m.

Type: Ship. MMSI: 244387000.

Date/timePositionNaut miles runAvg speedWind from/ knotsBaromVisibWave heightAir tempDewpointWater temp
2018-May-28 01:00N 52°34' E 002°04'815.6
2018-May-28 00:30N 52°40' E 001°57'714.9
2018-May-28 00:00N 52°46' E 001°49'815.4
2018-May-27 23:31N 52°52' E 001°41'714.5
2018-May-27 23:01N 52°57' E 001°32'714.8
2018-May-27 22:31N 53°02' E 001°24'815.5
2018-May-27 22:01N 53°08' E 001°16'815.5
2018-May-27 21:30N 53°14' E 001°08'1015.3
2018-May-27 20:50N 53°21' E 000°55'815.7
2018-May-27 20:20N 53°24' E 000°43'515.7
2018-May-27 20:00N 53°26' E 000°35'915.5
2018-May-27 19:25N 53°29' E 000°21'915.6
2018-May-27 18:50N 53°33' E 000°07'818.0
2018-May-27 18:23N 53°37' W 000°05'616.7
2018-May-27 18:00N 53°41' W 000°13'4 7.6
2018-May-27 17:30N 53°44' W 000°16'0 0.2
2018-May-27 17:00N 53°45' W 000°16'0 0.0
2018-May-27 16:30N 53°45' W 000°16'0 0.0
2018-May-27 16:00N 53°45' W 000°16'0 0.0
2018-May-27 15:30N 53°45' W 000°16'0 0.0
2018-May-27 14:59N 53°45' W 000°16'0 0.0
2018-May-27 14:29N 53°45' W 000°16'0 0.0
2018-May-27 13:59N 53°45' W 000°16'0 0.0
2018-May-27 13:29N 53°45' W 000°16'0 0.0
2018-May-27 12:58N 53°45' W 000°16'0 0.0
2018-May-27 12:28N 53°45' W 000°16'0 0.0
2018-May-27 11:58N 53°45' W 000°16'0 0.0
2018-May-27 11:28N 53°45' W 000°16'0 0.0
2018-May-27 10:58N 53°45' W 000°16'0 0.0
2018-May-27 10:30N 53°45' W 000°16'0 0.0
2018-May-27 10:00N 53°45' W 000°16'0 0.0
2018-May-27 09:30N 53°45' W 000°16'0 0.0
2018-May-27 09:00N 53°45' W 000°16'0 0.0
2018-May-27 08:30N 53°45' W 000°16'0 0.0
2018-May-27 07:59N 53°45' W 000°16'0 0.2
2018-May-27 07:29N 53°44' W 000°16'0 0.3
2018-May-27 06:59N 53°44' W 000°17'4 7.8
2018-May-27 06:30N 53°41' W 000°13'612.1
2018-May-27 06:00N 53°37' W 000°06'713.9
2018-May-27 05:30N 53°34' E 000°05'713.8
2018-May-27 04:58N 53°32' E 000°17'1314.6
2018-May-27 04:05N 53°26' E 000°36'214.6
2018-May-27 03:58N 53°26' E 000°39'714.4
2018-May-27 03:27N 53°23' E 000°50'613.9
2018-May-27 03:01N 53°20' E 000°59'713.5
2018-May-27 02:30N 53°15' E 001°07'714.0
2018-May-27 02:00N 53°10' E 001°15'714.8
2018-May-27 01:30N 53°05' E 001°24'815.4
2018-May-27 01:00N 52°59' E 001°33'816.1
2018-May-27 00:30N 52°53' E 001°42'816.2
2018-May-27 00:00N 52°46' E 001°49'816.5
2018-May-26 23:30N 52°40' E 001°57'916.0
2018-May-26 22:57N 52°32' E 002°04'815.0
2018-May-26 22:25N 52°25' E 002°10'614.1
2018-May-26 22:00N 52°19' E 002°14'713.3
2018-May-26 21:31N 52°13' E 002°18'712.9
2018-May-26 20:58N 52°07' E 002°23'2212.5
2018-May-26 19:12N 51°47' E 002°37'312.5
2018-May-26 18:59N 51°44' E 002°39'1012.8
2018-May-26 18:14N 51°36' E 002°47'313.3
2018-May-26 17:59N 51°33' E 002°50'713.3
2018-May-26 17:28N 51°28' E 002°57'713.7
2018-May-26 16:59N 51°24' E 003°06'510.7
2018-May-26 16:30N 51°21' E 003°12'0 0.6
2018-May-26 15:59N 51°20' E 003°11'0 0.0
2018-May-26 15:23N 51°20' E 003°11'0 0.0
2018-May-26 14:59N 51°20' E 003°11'0 0.0
2018-May-26 14:25N 51°20' E 003°11'0 0.0
2018-May-26 13:52N 51°20' E 003°11'0 0.0
2018-May-26 13:28N 51°20' E 003°11'0 0.0
2018-May-26 12:55N 51°20' E 003°11'0 0.0
2018-May-26 12:28N 51°20' E 003°11'0 0.0
2018-May-26 12:00N 51°20' E 003°11'0 0.0
2018-May-26 11:27N 51°20' E 003°11'0 0.0
2018-May-26 10:54N 51°20' E 003°11'0 0.0
2018-May-26 10:21N 51°20' E 003°11'0 0.0
2018-May-26 09:54N 51°20' E 003°11'0 0.0
2018-May-26 08:11N 51°20' E 003°11'0 0.0
2018-May-26 07:47N 51°20' E 003°11'0 0.0
2018-May-26 07:13N 51°20' E 003°11'1 2.4
2018-May-26 06:49N 51°21' E 003°12'515.2
2018-May-26 06:30N 51°24' E 003°06'1615.7
2018-May-26 05:30N 51°33' E 002°45'2015.6
2018-May-26 04:14N 51°51' E 002°34'416.1
2018-May-26 03:59N 51°55' E 002°31'917.1
2018-May-26 03:30N 52°03' E 002°25'2917.3
2018-May-26 01:49N 52°29' E 002°07'616.8
2018-May-26 01:30N 52°34' E 002°03'816.3
2018-May-26 01:00N 52°41' E 001°57'816.0
2018-May-26 00:31N 52°47' E 001°48'816.0
2018-May-26 00:01N 52°52' E 001°38'815.6
2018-May-25 23:31N 52°59' E 001°31'815.9
2018-May-25 23:01N 53°05' E 001°22'816.0
2018-May-25 22:30N 53°11' E 001°14'816.1
2018-May-25 22:00N 53°17' E 001°05'815.9
2018-May-25 21:30N 53°22' E 000°54'816.1
2018-May-25 21:00N 53°25' E 000°42'2315.9
2018-May-25 19:32N 53°34' E 000°05'119.0
2018-May-25 19:28N 53°35' E 000°04'816.7
2018-May-25 18:58N 53°38' W 000°10'613.9
2018-May-25 18:30N 53°43' W 000°15'1 2.5
2018-May-25 18:00N 53°44' W 000°16'0 0.1
2018-May-25 17:28N 53°45' W 000°16'0 0.0
2018-May-25 17:00N 53°45' W 000°16'0 0.0
2018-May-25 16:30N 53°45' W 000°16'0 0.0
2018-May-25 16:00N 53°45' W 000°16'0 0.0
2018-May-25 15:30N 53°45' W 000°16'0 0.0
2018-May-25 14:59N 53°45' W 000°16'0 0.0
2018-May-25 14:29N 53°45' W 000°16'0 0.0
2018-May-25 13:59N 53°45' W 000°16'0 0.0
2018-May-25 13:29N 53°45' W 000°16'0 0.0
2018-May-25 12:59N 53°45' W 000°16'0 0.0
2018-May-25 12:28N 53°45' W 000°16'0 0.0
2018-May-25 11:58N 53°45' W 000°16'0 0.0
2018-May-25 11:28N 53°45' W 000°16'0 0.0
2018-May-25 10:58N 53°45' W 000°16'0 0.0
2018-May-25 10:25N 53°45' W 000°16'0 0.0
2018-May-25 10:00N 53°45' W 000°16'0 0.0
2018-May-25 09:30N 53°45' W 000°16'0 0.0
2018-May-25 09:00N 53°45' W 000°16'0 0.0
2018-May-25 08:30N 53°45' W 000°16'0 0.0
2018-May-25 07:59N 53°45' W 000°16'0 0.1
2018-May-25 07:30N 53°45' W 000°16'0 0.3
2018-May-25 07:00N 53°44' W 000°16'0 1.0
2018-May-25 06:30N 53°44' W 000°16'611.5
2018-May-25 06:00N 53°39' W 000°12'611.6
2018-May-25 05:29N 53°36' W 000°03'913.2
2018-May-25 04:49N 53°33' E 000°11'3215.0
2018-May-25 02:41N 53°20' E 000°60'314.5
2018-May-25 02:30N 53°18' E 001°03'714.0
2018-May-25 02:00N 53°13' E 001°11'714.0
2018-May-25 01:30N 53°07' E 001°19'714.1
2018-May-25 01:00N 53°02' E 001°27'714.6
2018-May-25 00:30N 52°57' E 001°36'815.7
2018-May-25 00:00N 52°51' E 001°44'816.8
2018-May-24 23:30N 52°44' E 001°52'918.1
2018-May-24 23:00N 52°37' E 002°00'4517.1
2018-May-24 20:22N 51°56' E 002°31'2216.1
2018-May-24 18:59N 51°36' E 002°47'816.1
2018-May-24 18:29N 51°30' E 002°55'815.2
2018-May-24 17:58N 51°24' E 003°05'612.7
2018-May-24 17:30N 51°21' E 003°12'0 0.9
2018-May-24 17:00N 51°20' E 003°11'0 0.2
2018-May-24 16:26N 51°20' E 003°11'0 0.0
2018-May-24 15:50N 51°20' E 003°11'0 0.0
2018-May-24 15:26N 51°20' E 003°11'0 0.0
2018-May-24 14:56N 51°20' E 003°11'0 0.0
2018-May-24 14:25N 51°20' E 003°11'0 0.0
2018-May-24 13:55N 51°20' E 003°11'0 0.0
2018-May-24 08:55N 51°20' E 003°11'0 0.0
2018-May-24 07:27N 51°20' E 003°11'0 0.0
2018-May-24 07:00N 51°20' E 003°11'1 1.9
2018-May-24 06:29N 51°21' E 003°12'715.0
2018-May-24 06:00N 51°25' E 003°02'815.4
2018-May-24 05:28N 51°29' E 002°51'715.2
2018-May-24 05:00N 51°34' E 002°43'815.4
2018-May-24 04:30N 51°42' E 002°39'815.9
2018-May-24 04:01N 51°49' E 002°35'816.2
2018-May-24 03:30N 51°57' E 002°30'816.8
2018-May-24 03:00N 52°04' E 002°24'917.7
2018-May-24 02:30N 52°12' E 002°18'918.1
2018-May-24 02:01N 52°21' E 002°12'917.8
2018-May-24 01:30N 52°29' E 002°07'917.7
2018-May-24 01:00N 52°37' E 002°00'817.3
2018-May-24 00:31N 52°44' E 001°52'917.7
2018-May-24 00:01N 52°50' E 001°42'816.7
2018-May-23 23:30N 52°57' E 001°33'816.4
2018-May-23 23:01N 53°03' E 001°24'816.4
2018-May-23 22:31N 53°09' E 001°15'816.5
2018-May-23 22:00N 53°15' E 001°06'815.0
2018-May-23 21:28N 53°21' E 000°57'714.8
2018-May-23 21:00N 53°24' E 000°46'815.3
2018-May-23 20:30N 53°28' E 000°36'1115.1
2018-May-23 19:49N 53°32' E 000°19'414.8
2018-May-23 19:30N 53°33' E 000°12'815.6
2018-May-23 19:01N 53°35' W 000°00'714.2
2018-May-23 18:30N 53°39' W 000°11'713.3
2018-May-23 18:01N 53°44' W 000°17'0 0.5
2018-May-23 17:30N 53°44' W 000°16'0 0.2
2018-May-23 16:58N 53°45' W 000°16'0 0.0
2018-May-23 16:28N 53°45' W 000°16'0 0.0
2018-May-23 15:58N 53°45' W 000°16'0 0.0
2018-May-23 15:29N 53°45' W 000°16'0 0.0
2018-May-23 14:58N 53°45' W 000°16'0 0.0
2018-May-23 14:28N 53°45' W 000°16'0 0.0
2018-May-23 13:58N 53°45' W 000°16'0 0.0
2018-May-23 13:28N 53°45' W 000°16'0 0.0
2018-May-23 12:58N 53°45' W 000°16'0 0.0
2018-May-23 12:30N 53°45' W 000°16'0 0.0
2018-May-23 12:00N 53°45' W 000°16'0 0.0
2018-May-23 11:29N 53°45' W 000°16'0 0.0
2018-May-23 10:59N 53°45' W 000°16'0 0.0
2018-May-23 10:29N 53°45' W 000°16'0 0.0
2018-May-23 09:59N 53°45' W 000°16'0 0.0
2018-May-23 09:28N 53°45' W 000°16'0 0.0
2018-May-23 08:59N 53°45' W 000°16'0 0.0
2018-May-23 08:29N 53°45' W 000°16'0 0.0
2018-May-23 07:59N 53°45' W 000°16'0 0.4
2018-May-23 07:29N 53°45' W 000°16'0 0.4
2018-May-23 07:00N 53°44' W 000°16'0 1.0
2018-May-23 06:30N 53°44' W 000°16'612.5
2018-May-23 06:00N 53°39' W 000°11'611.0
2018-May-23 05:30N 53°36' W 000°03'713.9
2018-May-23 05:00N 53°34' E 000°08'3314.8
2018-May-23 02:45N 53°20' E 000°59'314.4
2018-May-23 02:30N 53°17' E 001°03'714.1
2018-May-23 02:00N 53°12' E 001°11'713.9
2018-May-23 01:30N 53°07' E 001°19'713.7
2018-May-23 01:00N 53°02' E 001°27'713.5
2018-May-23 00:31N 52°58' E 001°35'713.6
2018-May-23 00:00N 52°52' E 001°42'714.3
2018-May-22 23:30N 52°46' E 001°49'815.7
2018-May-22 23:00N 52°40' E 001°57'816.5
2018-May-22 22:30N 52°34' E 002°06'917.0
2018-May-22 21:58N 52°25' E 002°12'817.1
2018-May-22 21:29N 52°18' E 002°17'817.1
2018-May-22 21:00N 52°10' E 002°22'817.0
2018-May-22 20:30N 52°02' E 002°27'816.7
2018-May-22 20:00N 51°55' E 002°32'816.5
2018-May-22 19:30N 51°47' E 002°37'816.4
2018-May-22 19:00N 51°39' E 002°43'816.3
2018-May-22 18:30N 51°33' E 002°51'816.2
2018-May-22 18:00N 51°27' E 002°59'714.4
2018-May-22 17:30N 51°23' E 003°09'3 6.2
2018-May-22 16:58N 51°20' E 003°11'0 0.0
2018-May-22 16:09N 51°20' E 003°11'0 0.0
2018-May-22 16:00N 51°20' E 003°11'0 0.0
2018-May-22 15:21N 51°20' E 003°11'0 0.0
2018-May-22 14:51N 51°20' E 003°11'0 0.0
2018-May-22 14:30N 51°20' E 003°11'0 0.0
2018-May-22 13:59N 51°20' E 003°11'0 0.0
2018-May-22 13:29N 51°20' E 003°11'0 0.0
2018-May-22 12:59N 51°20' E 003°11'0 0.0
2018-May-22 12:29N 51°20' E 003°11'0 0.0
2018-May-22 11:59N 51°20' E 003°11'0 0.0
2018-May-22 11:28N 51°20' E 003°11'0 0.0
2018-May-22 10:58N 51°20' E 003°11'0 0.0
2018-May-22 10:28N 51°20' E 003°11'0 0.0
2018-May-22 09:58N 51°20' E 003°11'0 0.0
2018-May-22 09:12N 51°20' E 003°11'0 0.0
2018-May-22 09:00N 51°20' E 003°11'0 0.0
2018-May-22 08:24N 51°20' E 003°11'0 0.0
2018-May-22 08:00N 51°20' E 003°11'0 0.0
2018-May-22 07:24N 51°20' E 003°11'0 0.0
2018-May-22 06:56N 51°20' E 003°11'1 1.5
2018-May-22 06:28N 51°21' E 003°12'714.0
2018-May-22 06:00N 51°25' E 003°04'815.2
2018-May-22 05:30N 51°28' E 002°53'914.5
2018-May-22 04:55N 51°34' E 002°43'614.2
2018-May-22 04:30N 51°40' E 002°39'714.7
2018-May-22 04:00N 51°47' E 002°37'815.5
2018-May-22 03:28N 51°55' E 002°33'816.4
2018-May-22 03:00N 52°02' E 002°27'2417.2
2018-May-22 01:35N 52°24' E 002°11'518.6
2018-May-22 01:20N 52°28' E 002°08'618.8
2018-May-22 01:00N 52°33' E 002°03'919.0
2018-May-22 00:31N 52°42' E 001°55'1019.0
2018-May-22 00:01N 52°48' E 001°44'1019.1
2018-May-21 23:31N 52°54' E 001°32'918.9
2018-May-21 23:00N 52°59' E 001°18'2717.6
2018-May-21 21:27N 53°16' E 000°42'817.4
2018-May-21 21:00N 53°22' E 000°33'817.2
2018-May-21 20:30N 53°28' E 000°24'816.3
2018-May-21 20:00N 53°33' E 000°13'713.8
2018-May-21 19:30N 53°35' E 000°02'713.5
2018-May-21 19:00N 53°38' W 000°09'510.6
2018-May-21 18:30N 53°42' W 000°14'3 5.6
2018-May-21 18:00N 53°44' W 000°16'0 0.3
2018-May-21 17:30N 53°45' W 000°16'0 0.3
2018-May-21 16:59N 53°45' W 000°16'0 0.0
2018-May-21 16:29N 53°45' W 000°16'0 0.0
2018-May-21 15:58N 53°45' W 000°16'0 0.0
2018-May-21 15:28N 53°45' W 000°16'0 0.0
2018-May-21 14:58N 53°45' W 000°16'0 0.0
2018-May-21 14:28N 53°45' W 000°16'0 0.0
2018-May-21 14:01N 53°45' W 000°16'0 0.0
2018-May-21 13:30N 53°45' W 000°16'0 0.0
2018-May-21 13:00N 53°45' W 000°16'0 0.0
2018-May-21 12:30N 53°45' W 000°16'0 0.0
2018-May-21 12:00N 53°45' W 000°16'0 0.0
2018-May-21 11:29N 53°45' W 000°16'0 0.0
2018-May-21 10:59N 53°45' W 000°16'0 0.0
2018-May-21 10:29N 53°45' W 000°16'0 0.0
2018-May-21 09:59N 53°45' W 000°16'0 0.0
2018-May-21 09:29N 53°45' W 000°16'0 0.0
2018-May-21 08:58N 53°45' W 000°16'0 0.0
2018-May-21 08:28N 53°45' W 000°16'0 0.0
2018-May-21 07:58N 53°45' W 000°16'0 0.0
2018-May-21 07:30N 53°45' W 000°16'0 0.2
2018-May-21 07:00N 53°44' W 000°16'1 1.3
2018-May-21 06:30N 53°44' W 000°16'713.8
2018-May-21 06:00N 53°38' W 000°10'714.8
2018-May-21 05:31N 53°35' E 000°02'815.6
2018-May-21 05:00N 53°33' E 000°14'714.4
2018-May-21 04:30N 53°32' E 000°26'815.2
2018-May-21 03:59N 53°28' E 000°37'714.6
2018-May-21 03:30N 53°24' E 000°48'714.6
2018-May-21 03:00N 53°21' E 000°59'713.9
2018-May-21 02:31N 53°17' E 001°07'713.4
2018-May-21 02:00N 53°11' E 001°13'714.1
2018-May-21 01:31N 53°06' E 001°21'714.3
2018-May-21 01:00N 53°00' E 001°29'714.2
2018-May-21 00:31N 52°55' E 001°37'713.7
2018-May-21 00:00N 52°51' E 001°46'713.5
2018-May-20 23:30N 52°46' E 001°54'713.5
2018-May-20 23:00N 52°40' E 001°59'713.5
2018-May-20 22:30N 52°34' E 002°02'714.3
2018-May-20 22:00N 52°28' E 002°07'715.0
2018-May-20 21:30N 52°21' E 002°13'815.6
2018-May-20 21:00N 52°14' E 002°18'816.2
2018-May-20 20:30N 52°06' E 002°23'816.6
2018-May-20 20:00N 51°59' E 002°29'816.5
2018-May-20 19:30N 51°51' E 002°34'816.2
2018-May-20 19:00N 51°44' E 002°39'816.5
2018-May-20 18:30N 51°37' E 002°46'816.0
2018-May-20 18:00N 51°30' E 002°54'714.9
2018-May-20 17:31N 51°25' E 003°02'611.8
2018-May-20 17:01N 51°22' E 003°11'2 3.7
2018-May-20 16:26N 51°20' E 003°11'0 0.0
2018-May-20 15:59N 51°20' E 003°11'0 0.0
2018-May-20 15:17N 51°20' E 003°11'0 0.0
2018-May-20 14:13N 51°20' E 003°11'0 0.0
2018-May-20 13:46N 51°20' E 003°11'0 0.0
2018-May-20 11:42N 51°20' E 003°11'0 0.0
2018-May-20 10:06N 51°20' E 003°11'0 0.0
2018-May-20 09:51N 51°20' E 003°11'0 0.0
2018-May-20 09:17N 51°20' E 003°11'0 0.0
2018-May-20 08:53N 51°20' E 003°11'0 0.0
2018-May-20 08:26N 51°20' E 003°11'0 0.0
2018-May-20 07:59N 51°20' E 003°11'0 0.0
2018-May-20 07:29N 51°20' E 003°11'0 0.7
2018-May-20 07:00N 51°21' E 003°12'611.6
2018-May-20 06:29N 51°24' E 003°04'715.0
2018-May-20 05:59N 51°28' E 002°54'915.0
2018-May-20 05:21N 51°34' E 002°43'514.8
2018-May-20 05:00N 51°39' E 002°39'714.7
2018-May-20 04:30N 51°46' E 002°35'714.4
2018-May-20 04:00N 51°53' E 002°33'714.2
2018-May-20 03:30N 51°59' E 002°28'714.7
2018-May-20 03:01N 52°06' E 002°23'815.5
2018-May-20 02:28N 52°14' E 002°18'716.2
2018-May-20 02:00N 52°21' E 002°14'816.6
2018-May-20 01:31N 52°29' E 002°09'816.6
2018-May-20 01:00N 52°36' E 002°04'816.6
2018-May-20 00:30N 52°43' E 001°57'817.0
2018-May-20 00:00N 52°49' E 001°46'917.7
2018-May-19 23:30N 52°54' E 001°34'917.8
2018-May-19 23:00N 52°59' E 001°22'917.4
2018-May-19 22:31N 53°02' E 001°08'1217.2
2018-May-19 21:49N 53°09' E 000°52'516.9
2018-May-19 21:30N 53°13' E 000°46'816.2
2018-May-19 21:00N 53°19' E 000°37'816.1
2018-May-19 20:30N 53°25' E 000°29'816.1
2018-May-19 20:00N 53°30' E 000°19'714.4
2018-May-19 19:30N 53°33' E 000°08'713.1
2018-May-19 19:00N 53°36' W 000°03'611.8
2018-May-19 18:29N 53°39' W 000°11'510.9
2018-May-19 17:59N 53°44' W 000°16'1 1.6
2018-May-19 17:30N 53°44' W 000°16'0 0.3
2018-May-19 17:00N 53°45' W 000°16'0 0.0
2018-May-19 16:30N 53°45' W 000°16'0 0.0
2018-May-19 16:00N 53°45' W 000°16'0 0.0
2018-May-19 15:30N 53°45' W 000°16'0 0.0
2018-May-19 15:00N 53°45' W 000°16'0 0.0
2018-May-19 14:29N 53°45' W 000°16'0 0.0
2018-May-19 13:59N 53°45' W 000°16'0 0.0
2018-May-19 13:29N 53°45' W 000°16'0 0.0
2018-May-19 12:59N 53°45' W 000°16'0 0.0
2018-May-19 12:29N 53°45' W 000°16'0 0.0
2018-May-19 11:58N 53°45' W 000°16'0 0.0
2018-May-19 11:28N 53°45' W 000°16'0 0.0
2018-May-19 10:58N 53°45' W 000°16'0 0.0
2018-May-19 10:28N 53°45' W 000°16'0 0.0
2018-May-19 10:01N 53°45' W 000°16'0 0.0
2018-May-19 09:30N 53°45' W 000°16'0 0.0
2018-May-19 09:00N 53°45' W 000°16'0 0.0
2018-May-19 08:30N 53°45' W 000°16'0 0.0
2018-May-19 08:00N 53°45' W 000°16'0 0.3
2018-May-19 07:30N 53°45' W 000°16'0 0.6
2018-May-19 07:00N 53°44' W 000°16'4 8.4
2018-May-19 06:30N 53°41' W 000°13'815.5
2018-May-19 06:00N 53°36' W 000°03'815.2
2018-May-19 05:30N 53°33' E 000°09'1113.6
2018-May-19 04:43N 53°31' E 000°27'312.1
2018-May-19 04:28N 53°30' E 000°31'1413.1
2018-May-19 03:22N 53°23' E 000°52'514.9
2018-May-19 03:00N 53°20' E 000°60'815.2
2018-May-19 02:30N 53°14' E 001°08'815.3
2018-May-19 02:00N 53°08' E 001°16'815.0
2018-May-19 01:30N 53°02' E 001°24'714.9
2018-May-19 01:00N 52°57' E 001°32'815.2
2018-May-19 00:30N 52°51' E 001°41'714.5
2018-May-19 00:00N 52°46' E 001°49'713.8
2018-May-18 23:30N 52°41' E 001°56'713.6
2018-May-18 23:00N 52°35' E 002°02'1513.8
2018-May-18 21:56N 52°21' E 002°12'1313.8
2018-May-18 21:00N 52°10' E 002°21'814.2
2018-May-18 20:27N 52°03' E 002°26'714.7
2018-May-18 20:00N 51°56' E 002°30'915.1
2018-May-18 19:23N 51°48' E 002°37'615.4
2018-May-18 19:00N 51°43' E 002°40'914.9
2018-May-18 18:24N 51°35' E 002°48'614.8
2018-May-18 18:00N 51°30' E 002°54'713.9
2018-May-18 17:30N 51°25' E 003°01'714.7
2018-May-18 17:00N 51°22' E 003°12'1 2.4
2018-May-18 16:26N 51°20' E 003°11'0 0.0
2018-May-18 15:59N 51°20' E 003°11'0 0.0
2018-May-18 15:29N 51°20' E 003°11'0 0.0
2018-May-18 14:59N 51°20' E 003°11'0 0.0
2018-May-18 14:29N 51°20' E 003°11'0 0.0
2018-May-18 13:58N 51°20' E 003°11'0 0.0
2018-May-18 13:28N 51°20' E 003°11'0 0.0
2018-May-18 12:55N 51°20' E 003°11'0 0.0
2018-May-18 12:25N 51°20' E 003°11'0 0.0
2018-May-18 11:58N 51°20' E 003°11'0 0.0
2018-May-18 11:30N 51°20' E 003°11'0 0.0
2018-May-18 11:00N 51°20' E 003°11'0 0.0
2018-May-18 10:30N 51°20' E 003°11'0 0.0
2018-May-18 10:00N 51°20' E 003°11'0 0.0
2018-May-18 09:29N 51°20' E 003°11'0 0.0
2018-May-18 08:59N 51°20' E 003°11'0 0.0
2018-May-18 08:29N 51°20' E 003°11'0 0.0
2018-May-18 07:53N 51°20' E 003°11'0 0.0
2018-May-18 07:26N 51°20' E 003°11'0 0.0
2018-May-18 06:59N 51°20' E 003°11'1 2.3
2018-May-18 06:30N 51°21' E 003°12'714.1
2018-May-18 06:01N 51°25' E 003°02'814.2
2018-May-18 05:28N 51°29' E 002°51'614.4
2018-May-18 05:00N 51°34' E 002°44'814.3
2018-May-18 04:28N 51°41' E 002°39'714.7
2018-May-18 04:00N 51°47' E 002°37'714.5
2018-May-18 03:30N 51°54' E 002°33'714.5
2018-May-18 03:00N 52°01' E 002°28'815.1
2018-May-18 02:30N 52°07' E 002°22'915.6
2018-May-18 01:56N 52°15' E 002°16'816.0
2018-May-18 01:27N 52°23' E 002°12'  

Dump ship's entire track history